Hauptseite
METAR-TAF:

METAR-TAF

Flughäfen :

Rostock, Deutschland

Flughafen Rostock-Laage

Breite: 53-55N, Länge: 012-17E, Höhe: 40 m

Beobachtung

Neuester Wetterbericht von vor 47 Minuten, um 10:20 UTC
Wind 8 kt aus Süd/Südwest
Temperatur 11°C
Luftfeuchtigkeit 66%
Luftdruck 1003 hPa
Sichtweite 10 km oder mehr
Durchbrochene Bewölkung in der Höhe von 5700 ft

METAR: ETNL 271020Z 20008KT 9999 BKN057 11/05 Q1003 BLU BLU

Zeit: 12:07 (11:07 UTC)

Prognose

Neuester Wetterbericht von vor 3 Stunden und 7 Minuten, um 08:00 UTC
Gültige Prognose vom 27 um 09 UTC bis 27 um 18 UTC
Wind 12 kt aus Süd/Südwest
Sichtweite 10 km oder mehr
Durchbrochene Bewölkung in der Höhe von 5000 ft

TAF: ETNL 270800Z 2709/2718 20012KT 9999 NSW BKN050 BY ETGL

Wetterbeobachtungen und Prognosen von mehr als 4000 Flughäfen (METAR und TAF Bericht).

Die verfügbaren Stationen werden durch gelbe und rote Markierungen auf der Karte dargestellt.

Führen Sie die Maus auf sie, um den Namen der Station zu sehen.

Darauf klicken, um die Beobachtung von Wetterbeobachtungen und Prognosen zu sehen.

Um die Karte zu ändern : klicken Sie auf den grünen Tasten mit einem schwarzen Kreuz Zum Vergrößern, auf den grünen Button mit einem Gedankenstrich zu verkleinern, oder auf die grünen Pfeile für benachbarte Karten.


METAR-TAF: